Strona główna
METAR-TAF:

METAR-TAF

Lotnisko :

Saint-Nazaire, Francja

Szerokość geograficzna: 47-19N, Długość geograficzna: 002-10W, wysokość: 3 m

Aktualna obserwacja pogody

Raport powstał 34 minut temu, godzina 00:30 UTC
Wiatr 11 kt od wschodnio-południowy wschód
Temperatura 11°C
Wilgotność 66%
Ciśnienie 1014 hPa
Widzialność 10 km lub więcej
Brak chmur poniżej 1500 m i brak chmur cumulonimbus

METAR: LFRZ 050030Z AUTO 11011KT CAVOK 11/05 Q1014

czas: 03:04 (01:04 UTC)


TAF: brakujący

Obserwacja i prognoza pogody dla ponad 4000 lotnisk (raport METAR i TAF).

Dostępne stacje oznaczono żółtymi i czerwonymi punktami na mapie.

Najedź kursorem aby zobaczyć nazwę stacji.

Kliknij aby zobaczyć obserwacje i prognozy pogody.

Aby zmienić mapę: kliknij na zielony przycisk z czarnym krzyżykiem, aby powiększyć; na zielony przycisk z myślnikiem, aby pomniejszyć; na zielone strzałki, aby przejść do map sąsiednich.


METAR-TAF: